sensor_id;sensor_type;location;lat;lon;timestamp;temperature;humidity
52125;DHT22;38119;52.710;6.398;2023-06-10T00:00:46;19.40;77.00
52125;DHT22;38119;52.710;6.398;2023-06-10T00:03:11;19.40;77.00
52125;DHT22;38119;52.710;6.398;2023-06-10T00:05:40;19.40;77.00
52125;DHT22;38119;52.710;6.398;2023-06-10T00:08:06;19.40;77.10
52125;DHT22;38119;52.710;6.398;2023-06-10T00:10:36;19.30;77.00
52125;DHT22;38119;52.710;6.398;2023-06-10T00:13:04;19.30;77.10
52125;DHT22;38119;52.710;6.398;2023-06-10T00:15:30;19.20;77.60
52125;DHT22;38119;52.710;6.398;2023-06-10T00:17:57;19.30;77.10
52125;DHT22;38119;52.710;6.398;2023-06-10T00:20:23;19.20;77.00
52125;DHT22;38119;52.710;6.398;2023-06-10T00:22:49;19.10;77.00
52125;DHT22;38119;52.710;6.398;2023-06-10T00:25:15;19.10;76.90
52125;DHT22;38119;52.710;6.398;2023-06-10T00:27:41;19.10;76.90
52125;DHT22;38119;52.710;6.398;2023-06-10T00:30:07;19.00;76.90
52125;DHT22;38119;52.710;6.398;2023-06-10T00:32:33;19.00;77.00
52125;DHT22;38119;52.710;6.398;2023-06-10T00:34:59;19.00;77.00
52125;DHT22;38119;52.710;6.398;2023-06-10T00:37:24;18.80;76.90
52125;DHT22;38119;52.710;6.398;2023-06-10T00:39:50;18.90;77.00
52125;DHT22;38119;52.710;6.398;2023-06-10T00:42:16;18.90;77.00
52125;DHT22;38119;52.710;6.398;2023-06-10T00:44:42;18.90;77.10
52125;DHT22;38119;52.710;6.398;2023-06-10T00:47:08;18.90;77.30
52125;DHT22;38119;52.710;6.398;2023-06-10T00:49:34;18.90;77.30
52125;DHT22;38119;52.710;6.398;2023-06-10T00:52:01;18.80;77.30
52125;DHT22;38119;52.710;6.398;2023-06-10T00:54:27;19.20;77.70
52125;DHT22;38119;52.710;6.398;2023-06-10T00:56:53;18.80;77.50
52125;DHT22;38119;52.710;6.398;2023-06-10T00:59:19;18.80;77.60
52125;DHT22;38119;52.710;6.398;2023-06-10T01:01:46;18.80;77.70
52125;DHT22;38119;52.710;6.398;2023-06-10T01:04:17;18.70;77.80
52125;DHT22;38119;52.710;6.398;2023-06-10T01:06:54;18.70;78.00
52125;DHT22;38119;52.710;6.398;2023-06-10T01:09:32;18.70;78.20
52125;DHT22;38119;52.710;6.398;2023-06-10T01:12:07;18.70;78.30
52125;DHT22;38119;52.710;6.398;2023-06-10T01:14:35;18.60;78.60
52125;DHT22;38119;52.710;6.398;2023-06-10T01:17:01;18.60;78.80
52125;DHT22;38119;52.710;6.398;2023-06-10T01:19:28;18.60;78.90
52125;DHT22;38119;52.710;6.398;2023-06-10T01:21:57;18.60;79.20
52125;DHT22;38119;52.710;6.398;2023-06-10T01:24:26;18.80;79.50
52125;DHT22;38119;52.710;6.398;2023-06-10T01:26:53;18.80;79.70
52125;DHT22;38119;52.710;6.398;2023-06-10T01:29:43;18.40;79.60
52125;DHT22;38119;52.710;6.398;2023-06-10T01:32:44;18.50;80.00
52125;DHT22;38119;52.710;6.398;2023-06-10T01:35:11;18.40;80.10
52125;DHT22;38119;52.710;6.398;2023-06-10T01:37:39;18.40;80.30
52125;DHT22;38119;52.710;6.398;2023-06-10T01:40:05;18.40;80.50
52125;DHT22;38119;52.710;6.398;2023-06-10T01:42:32;18.40;80.70
52125;DHT22;38119;52.710;6.398;2023-06-10T01:44:58;18.40;80.90
52125;DHT22;38119;52.710;6.398;2023-06-10T01:47:24;18.30;81.00
52125;DHT22;38119;52.710;6.398;2023-06-10T01:49:50;18.60;81.40
52125;DHT22;38119;52.710;6.398;2023-06-10T01:52:15;18.30;81.40
52125;DHT22;38119;52.710;6.398;2023-06-10T01:54:41;18.30;81.50
52125;DHT22;38119;52.710;6.398;2023-06-10T01:57:07;18.20;81.70
52125;DHT22;38119;52.710;6.398;2023-06-10T01:59:32;18.20;81.90
52125;DHT22;38119;52.710;6.398;2023-06-10T02:01:58;18.20;82.00
52125;DHT22;38119;52.710;6.398;2023-06-10T02:04:24;18.20;82.20
52125;DHT22;38119;52.710;6.398;2023-06-10T02:06:49;18.10;82.40
52125;DHT22;38119;52.710;6.398;2023-06-10T02:09:16;18.10;82.60
52125;DHT22;38119;52.710;6.398;2023-06-10T02:11:43;18.10;82.80
52125;DHT22;38119;52.710;6.398;2023-06-10T02:14:09;18.00;82.90
52125;DHT22;38119;52.710;6.398;2023-06-10T02:16:35;18.00;83.10
52125;DHT22;38119;52.710;6.398;2023-06-10T02:19:01;18.00;83.30
52125;DHT22;38119;52.710;6.398;2023-06-10T02:21:28;17.90;83.40
52125;DHT22;38119;52.710;6.398;2023-06-10T02:23:54;18.10;83.60
52125;DHT22;38119;52.710;6.398;2023-06-10T02:26:19;18.00;83.70
52125;DHT22;38119;52.710;6.398;2023-06-10T02:28:46;17.80;83.70
52125;DHT22;38119;52.710;6.398;2023-06-10T02:31:13;17.80;83.90
52125;DHT22;38119;52.710;6.398;2023-06-10T02:33:38;17.80;84.10
52125;DHT22;38119;52.710;6.398;2023-06-10T02:36:06;17.80;84.50
52125;DHT22;38119;52.710;6.398;2023-06-10T02:38:32;17.70;84.80
52125;DHT22;38119;52.710;6.398;2023-06-10T02:40:58;17.70;84.70
52125;DHT22;38119;52.710;6.398;2023-06-10T02:43:23;17.70;84.90
52125;DHT22;38119;52.710;6.398;2023-06-10T02:45:49;17.60;85.20
52125;DHT22;38119;52.710;6.398;2023-06-10T02:48:15;17.60;85.40
52125;DHT22;38119;52.710;6.398;2023-06-10T02:50:40;17.60;85.60
52125;DHT22;38119;52.710;6.398;2023-06-10T02:53:06;17.60;85.80
52125;DHT22;38119;52.710;6.398;2023-06-10T02:55:31;17.50;86.10
52125;DHT22;38119;52.710;6.398;2023-06-10T02:57:58;17.60;86.30
52125;DHT22;38119;52.710;6.398;2023-06-10T03:00:25;17.50;86.40
52125;DHT22;38119;52.710;6.398;2023-06-10T03:02:51;17.50;86.50
52125;DHT22;38119;52.710;6.398;2023-06-10T03:05:17;17.40;86.70
52125;DHT22;38119;52.710;6.398;2023-06-10T03:07:42;17.40;86.80
52125;DHT22;38119;52.710;6.398;2023-06-10T03:10:08;17.40;87.20
52125;DHT22;38119;52.710;6.398;2023-06-10T03:12:34;17.40;87.40
52125;DHT22;38119;52.710;6.398;2023-06-10T03:15:00;17.30;87.50
52125;DHT22;38119;52.710;6.398;2023-06-10T03:17:25;17.30;87.70
52125;DHT22;38119;52.710;6.398;2023-06-10T03:19:51;17.30;87.80
52125;DHT22;38119;52.710;6.398;2023-06-10T03:22:17;17.30;88.00
52125;DHT22;38119;52.710;6.398;2023-06-10T03:24:42;17.30;88.30
52125;DHT22;38119;52.710;6.398;2023-06-10T03:27:10;17.20;88.40
52125;DHT22;38119;52.710;6.398;2023-06-10T03:29:39;17.20;88.60
52125;DHT22;38119;52.710;6.398;2023-06-10T03:32:05;17.20;88.90
52125;DHT22;38119;52.710;6.398;2023-06-10T03:34:31;17.20;89.00
52125;DHT22;38119;52.710;6.398;2023-06-10T03:36:57;17.10;89.00
52125;DHT22;38119;52.710;6.398;2023-06-10T03:39:26;17.10;89.20
52125;DHT22;38119;52.710;6.398;2023-06-10T03:41:54;17.10;89.40
52125;DHT22;38119;52.710;6.398;2023-06-10T03:44:21;17.10;89.60
52125;DHT22;38119;52.710;6.398;2023-06-10T03:46:46;17.10;89.90
52125;DHT22;38119;52.710;6.398;2023-06-10T03:49:12;17.10;90.00
52125;DHT22;38119;52.710;6.398;2023-06-10T03:51:38;17.10;90.10
52125;DHT22;38119;52.710;6.398;2023-06-10T03:54:04;17.00;90.20
52125;DHT22;38119;52.710;6.398;2023-06-10T03:56:31;17.00;90.20
52125;DHT22;38119;52.710;6.398;2023-06-10T03:58:57;17.00;90.30
52125;DHT22;38119;52.710;6.398;2023-06-10T04:01:22;17.10;90.40
52125;DHT22;38119;52.710;6.398;2023-06-10T04:03:49;17.00;90.40
52125;DHT22;38119;52.710;6.398;2023-06-10T04:06:16;17.00;90.50
52125;DHT22;38119;52.710;6.398;2023-06-10T04:08:42;17.00;90.60
52125;DHT22;38119;52.710;6.398;2023-06-10T04:11:08;17.00;90.60
52125;DHT22;38119;52.710;6.398;2023-06-10T04:13:34;17.00;90.70
52125;DHT22;38119;52.710;6.398;2023-06-10T04:16:00;17.00;90.80
52125;DHT22;38119;52.710;6.398;2023-06-10T04:18:26;17.00;90.80
52125;DHT22;38119;52.710;6.398;2023-06-10T04:20:51;16.90;90.90
52125;DHT22;38119;52.710;6.398;2023-06-10T04:23:17;16.90;91.00
52125;DHT22;38119;52.710;6.398;2023-06-10T04:25:43;16.90;91.10
52125;DHT22;38119;52.710;6.398;2023-06-10T04:28:09;16.90;91.10
52125;DHT22;38119;52.710;6.398;2023-06-10T04:30:34;16.90;91.20
52125;DHT22;38119;52.710;6.398;2023-06-10T04:33:00;16.90;91.40
52125;DHT22;38119;52.710;6.398;2023-06-10T04:35:26;16.90;91.40
52125;DHT22;38119;52.710;6.398;2023-06-10T04:37:54;16.80;91.50
52125;DHT22;38119;52.710;6.398;2023-06-10T04:40:20;16.90;91.70
52125;DHT22;38119;52.710;6.398;2023-06-10T04:42:46;16.90;91.80
52125;DHT22;38119;52.710;6.398;2023-06-10T04:45:11;16.90;91.90
52125;DHT22;38119;52.710;6.398;2023-06-10T04:47:37;17.00;92.10
52125;DHT22;38119;52.710;6.398;2023-06-10T04:50:03;16.90;92.20
52125;DHT22;38119;52.710;6.398;2023-06-10T04:52:29;16.90;92.20
52125;DHT22;38119;52.710;6.398;2023-06-10T04:54:57;16.90;92.40
52125;DHT22;38119;52.710;6.398;2023-06-10T04:57:23;16.90;92.50
52125;DHT22;38119;52.710;6.398;2023-06-10T04:59:49;17.00;92.60
52125;DHT22;38119;52.710;6.398;2023-06-10T05:02:14;17.00;92.70
52125;DHT22;38119;52.710;6.398;2023-06-10T05:04:40;17.00;92.70
52125;DHT22;38119;52.710;6.398;2023-06-10T05:07:06;17.00;92.80
52125;DHT22;38119;52.710;6.398;2023-06-10T05:09:31;17.00;93.00
52125;DHT22;38119;52.710;6.398;2023-06-10T05:11:58;17.00;93.10
52125;DHT22;38119;52.710;6.398;2023-06-10T05:14:24;17.00;93.20
52125;DHT22;38119;52.710;6.398;2023-06-10T05:16:50;17.00;93.40
52125;DHT22;38119;52.710;6.398;2023-06-10T05:19:16;17.10;93.40
52125;DHT22;38119;52.710;6.398;2023-06-10T05:21:41;17.40;93.60
52125;DHT22;38119;52.710;6.398;2023-06-10T05:24:07;17.10;93.70
52125;DHT22;38119;52.710;6.398;2023-06-10T05:26:33;17.10;93.70
52125;DHT22;38119;52.710;6.398;2023-06-10T05:29:03;17.10;93.90
52125;DHT22;38119;52.710;6.398;2023-06-10T05:31:29;17.10;94.00
52125;DHT22;38119;52.710;6.398;2023-06-10T05:33:55;17.20;94.10
52125;DHT22;38119;52.710;6.398;2023-06-10T05:36:23;17.20;94.20
52125;DHT22;38119;52.710;6.398;2023-06-10T05:38:50;17.20;94.30
52125;DHT22;38119;52.710;6.398;2023-06-10T05:41:16;17.20;94.40
52125;DHT22;38119;52.710;6.398;2023-06-10T05:43:42;17.20;94.40
52125;DHT22;38119;52.710;6.398;2023-06-10T05:46:07;17.30;94.50
52125;DHT22;38119;52.710;6.398;2023-06-10T05:48:33;17.30;94.60
52125;DHT22;38119;52.710;6.398;2023-06-10T05:50:58;17.30;94.60
52125;DHT22;38119;52.710;6.398;2023-06-10T05:53:24;17.30;94.80
52125;DHT22;38119;52.710;6.398;2023-06-10T05:55:50;17.40;94.90
52125;DHT22;38119;52.710;6.398;2023-06-10T05:58:16;17.30;94.90
52125;DHT22;38119;52.710;6.398;2023-06-10T06:00:42;17.40;94.90
52125;DHT22;38119;52.710;6.398;2023-06-10T06:03:08;17.30;94.90
52125;DHT22;38119;52.710;6.398;2023-06-10T06:05:34;17.40;95.00
52125;DHT22;38119;52.710;6.398;2023-06-10T06:08:07;17.40;95.20
52125;DHT22;38119;52.710;6.398;2023-06-10T06:10:34;17.30;95.10
52125;DHT22;38119;52.710;6.398;2023-06-10T06:13:00;17.50;95.20
52125;DHT22;38119;52.710;6.398;2023-06-10T06:15:26;17.40;95.20
52125;DHT22;38119;52.710;6.398;2023-06-10T06:17:52;17.50;95.30
52125;DHT22;38119;52.710;6.398;2023-06-10T06:20:21;17.50;95.40
52125;DHT22;38119;52.710;6.398;2023-06-10T06:22:47;17.50;95.20
52125;DHT22;38119;52.710;6.398;2023-06-10T06:25:12;17.60;95.30
52125;DHT22;38119;52.710;6.398;2023-06-10T06:27:38;17.60;95.30
52125;DHT22;38119;52.710;6.398;2023-06-10T06:30:04;17.60;95.40
52125;DHT22;38119;52.710;6.398;2023-06-10T06:32:30;17.60;95.50
52125;DHT22;38119;52.710;6.398;2023-06-10T06:34:56;17.60;95.50
52125;DHT22;38119;52.710;6.398;2023-06-10T06:37:22;17.60;95.80
52125;DHT22;38119;52.710;6.398;2023-06-10T06:39:50;17.70;95.60
52125;DHT22;38119;52.710;6.398;2023-06-10T06:42:16;17.70;95.70
52125;DHT22;38119;52.710;6.398;2023-06-10T06:44:42;17.70;95.70
52125;DHT22;38119;52.710;6.398;2023-06-10T06:47:08;17.80;95.70
52125;DHT22;38119;52.710;6.398;2023-06-10T06:49:33;17.80;95.70
52125;DHT22;38119;52.710;6.398;2023-06-10T06:51:59;17.70;95.70
52125;DHT22;38119;52.710;6.398;2023-06-10T06:54:25;17.90;95.90
52125;DHT22;38119;52.710;6.398;2023-06-10T06:56:50;17.90;96.20
52125;DHT22;38119;52.710;6.398;2023-06-10T06:59:16;17.90;96.00
52125;DHT22;38119;52.710;6.398;2023-06-10T07:01:45;18.20;96.20
52125;DHT22;38119;52.710;6.398;2023-06-10T07:04:11;18.00;96.20
52125;DHT22;38119;52.710;6.398;2023-06-10T07:06:37;18.00;96.50
52125;DHT22;38119;52.710;6.398;2023-06-10T07:09:04;18.10;96.60
52125;DHT22;38119;52.710;6.398;2023-06-10T07:11:30;18.00;96.50
52125;DHT22;38119;52.710;6.398;2023-06-10T07:13:56;18.10;96.60
52125;DHT22;38119;52.710;6.398;2023-06-10T07:16:22;18.20;96.50
52125;DHT22;38119;52.710;6.398;2023-06-10T07:18:48;18.20;96.40
52125;DHT22;38119;52.710;6.398;2023-06-10T07:21:13;18.30;96.40
52125;DHT22;38119;52.710;6.398;2023-06-10T07:23:42;18.60;96.50
52125;DHT22;38119;52.710;6.398;2023-06-10T07:26:08;18.40;96.40
52125;DHT22;38119;52.710;6.398;2023-06-10T07:28:37;18.50;96.40
52125;DHT22;38119;52.710;6.398;2023-06-10T07:31:03;18.40;96.50
52125;DHT22;38119;52.710;6.398;2023-06-10T07:33:29;18.50;96.90
52125;DHT22;38119;52.710;6.398;2023-06-10T07:35:54;18.60;96.70
52125;DHT22;38119;52.710;6.398;2023-06-10T07:38:21;18.80;96.60
52125;DHT22;38119;52.710;6.398;2023-06-10T07:40:48;18.60;96.40
52125;DHT22;38119;52.710;6.398;2023-06-10T07:43:13;19.40;96.50
52125;DHT22;38119;52.710;6.398;2023-06-10T07:45:42;18.70;96.40
52125;DHT22;38119;52.710;6.398;2023-06-10T07:48:08;18.80;96.20
52125;DHT22;38119;52.710;6.398;2023-06-10T07:50:34;18.80;96.10
52125;DHT22;38119;52.710;6.398;2023-06-10T07:53:00;18.80;95.90
52125;DHT22;38119;52.710;6.398;2023-06-10T07:55:25;18.90;96.10
52125;DHT22;38119;52.710;6.398;2023-06-10T07:57:52;18.90;95.90
52125;DHT22;38119;52.710;6.398;2023-06-10T08:00:19;19.00;95.90
52125;DHT22;38119;52.710;6.398;2023-06-10T08:02:45;19.10;95.80
52125;DHT22;38119;52.710;6.398;2023-06-10T08:05:11;19.10;96.00
52125;DHT22;38119;52.710;6.398;2023-06-10T08:07:38;19.20;96.00
52125;DHT22;38119;52.710;6.398;2023-06-10T08:10:05;20.00;96.00
52125;DHT22;38119;52.710;6.398;2023-06-10T08:12:32;19.40;95.70
52125;DHT22;38119;52.710;6.398;2023-06-10T08:14:57;19.50;95.50
52125;DHT22;38119;52.710;6.398;2023-06-10T08:17:23;19.70;95.60
52125;DHT22;38119;52.710;6.398;2023-06-10T08:19:51;19.90;95.50
52125;DHT22;38119;52.710;6.398;2023-06-10T08:22:17;20.10;95.40
52125;DHT22;38119;52.710;6.398;2023-06-10T08:24:42;20.30;95.10
52125;DHT22;38119;52.710;6.398;2023-06-10T08:27:09;20.80;94.80
52125;DHT22;38119;52.710;6.398;2023-06-10T08:29:35;21.10;94.50
52125;DHT22;38119;52.710;6.398;2023-06-10T08:32:01;21.40;93.90
52125;DHT22;38119;52.710;6.398;2023-06-10T08:34:28;21.70;93.30
52125;DHT22;38119;52.710;6.398;2023-06-10T08:36:54;22.00;93.00
52125;DHT22;38119;52.710;6.398;2023-06-10T08:39:23;22.30;92.50
52125;DHT22;38119;52.710;6.398;2023-06-10T08:44:29;22.90;90.10
52125;DHT22;38119;52.710;6.398;2023-06-10T08:46:56;23.20;90.00
52125;DHT22;38119;52.710;6.398;2023-06-10T08:49:30;23.30;90.10
52125;DHT22;38119;52.710;6.398;2023-06-10T08:51:59;23.60;89.80
52125;DHT22;38119;52.710;6.398;2023-06-10T08:54:28;23.80;89.20
52125;DHT22;38119;52.710;6.398;2023-06-10T08:56:56;24.00;87.30
52125;DHT22;38119;52.710;6.398;2023-06-10T08:59:24;24.20;86.70
52125;DHT22;38119;52.710;6.398;2023-06-10T09:01:50;24.50;86.30
52125;DHT22;38119;52.710;6.398;2023-06-10T09:04:17;24.80;85.70
52125;DHT22;38119;52.710;6.398;2023-06-10T09:06:44;24.90;84.80
52125;DHT22;38119;52.710;6.398;2023-06-10T09:09:10;25.10;84.30
52125;DHT22;38119;52.710;6.398;2023-06-10T09:11:37;25.30;83.50
52125;DHT22;38119;52.710;6.398;2023-06-10T09:14:03;25.40;82.90
52125;DHT22;38119;52.710;6.398;2023-06-10T09:16:28;25.60;81.50
52125;DHT22;38119;52.710;6.398;2023-06-10T09:18:54;25.70;80.50
52125;DHT22;38119;52.710;6.398;2023-06-10T09:21:24;25.80;81.50
52125;DHT22;38119;52.710;6.398;2023-06-10T09:23:50;26.00;79.50
52125;DHT22;38119;52.710;6.398;2023-06-10T09:26:16;26.20;79.50
52125;DHT22;38119;52.710;6.398;2023-06-10T09:28:49;26.40;78.30
52125;DHT22;38119;52.710;6.398;2023-06-10T09:31:16;26.50;77.90
52125;DHT22;38119;52.710;6.398;2023-06-10T09:33:44;26.70;76.80
52125;DHT22;38119;52.710;6.398;2023-06-10T09:36:10;26.80;75.50
52125;DHT22;38119;52.710;6.398;2023-06-10T09:38:36;26.90;74.20
52125;DHT22;38119;52.710;6.398;2023-06-10T09:41:03;27.00;73.40
52125;DHT22;38119;52.710;6.398;2023-06-10T09:43:39;27.10;71.70
52125;DHT22;38119;52.710;6.398;2023-06-10T09:46:05;27.10;70.40
52125;DHT22;38119;52.710;6.398;2023-06-10T09:48:34;27.20;71.30
52125;DHT22;38119;52.710;6.398;2023-06-10T09:51:00;27.40;70.60
52125;DHT22;38119;52.710;6.398;2023-06-10T09:53:26;27.50;69.30
52125;DHT22;38119;52.710;6.398;2023-06-10T09:55:52;27.60;67.60
52125;DHT22;38119;52.710;6.398;2023-06-10T09:58:17;27.60;67.00
52125;DHT22;38119;52.710;6.398;2023-06-10T10:00:43;27.70;66.80
52125;DHT22;38119;52.710;6.398;2023-06-10T10:03:09;27.80;66.30
52125;DHT22;38119;52.710;6.398;2023-06-10T10:05:34;27.90;65.80
52125;DHT22;38119;52.710;6.398;2023-06-10T10:08:00;28.00;65.20
52125;DHT22;38119;52.710;6.398;2023-06-10T10:10:26;28.20;64.70
52125;DHT22;38119;52.710;6.398;2023-06-10T10:12:55;28.30;64.70
52125;DHT22;38119;52.710;6.398;2023-06-10T10:15:25;28.40;64.70
52125;DHT22;38119;52.710;6.398;2023-06-10T10:17:58;28.60;65.10
52125;DHT22;38119;52.710;6.398;2023-06-10T10:20:29;28.70;64.50
52125;DHT22;38119;52.710;6.398;2023-06-10T10:22:57;28.70;64.00
52125;DHT22;38119;52.710;6.398;2023-06-10T10:25:28;28.90;64.30
52125;DHT22;38119;52.710;6.398;2023-06-10T10:27:59;29.00;62.80
52125;DHT22;38119;52.710;6.398;2023-06-10T10:30:28;29.10;62.40
52125;DHT22;38119;52.710;6.398;2023-06-10T10:33:06;29.10;62.00
52125;DHT22;38119;52.710;6.398;2023-06-10T10:35:36;29.20;60.60
52125;DHT22;38119;52.710;6.398;2023-06-10T10:38:02;29.20;61.80
52125;DHT22;38119;52.710;6.398;2023-06-10T10:40:29;29.40;61.40
52125;DHT22;38119;52.710;6.398;2023-06-10T10:42:56;29.50;60.00
52125;DHT22;38119;52.710;6.398;2023-06-10T10:45:22;29.60;59.30
52125;DHT22;38119;52.710;6.398;2023-06-10T10:47:52;29.70;59.00
52125;DHT22;38119;52.710;6.398;2023-06-10T10:50:19;29.90;58.60
52125;DHT22;38119;52.710;6.398;2023-06-10T10:53:04;29.90;59.30
52125;DHT22;38119;52.710;6.398;2023-06-10T10:55:30;29.90;59.00
52125;DHT22;38119;52.710;6.398;2023-06-10T10:58:04;30.00;58.20
52125;DHT22;38119;52.710;6.398;2023-06-10T11:00:42;30.10;56.60
52125;DHT22;38119;52.710;6.398;2023-06-10T11:03:13;30.20;56.60
52125;DHT22;38119;52.710;6.398;2023-06-10T11:05:42;30.30;56.70
52125;DHT22;38119;52.710;6.398;2023-06-10T11:08:10;30.30;56.50
52125;DHT22;38119;52.710;6.398;2023-06-10T11:10:51;30.40;56.10
52125;DHT22;38119;52.710;6.398;2023-06-10T11:13:20;30.60;55.50
52125;DHT22;38119;52.710;6.398;2023-06-10T11:15:50;30.70;56.10
52125;DHT22;38119;52.710;6.398;2023-06-10T11:18:28;30.70;55.60
52125;DHT22;38119;52.710;6.398;2023-06-10T11:20:58;30.90;55.00
52125;DHT22;38119;52.710;6.398;2023-06-10T11:23:26;31.00;55.40
52125;DHT22;38119;52.710;6.398;2023-06-10T11:25:51;31.10;55.30
52125;DHT22;38119;52.710;6.398;2023-06-10T11:28:21;31.20;55.10
52125;DHT22;38119;52.710;6.398;2023-06-10T11:30:46;31.30;54.80
52125;DHT22;38119;52.710;6.398;2023-06-10T11:33:22;31.30;53.80
52125;DHT22;38119;52.710;6.398;2023-06-10T11:35:50;31.40;53.70
52125;DHT22;38119;52.710;6.398;2023-06-10T11:38:15;31.50;53.00
52125;DHT22;38119;52.710;6.398;2023-06-10T11:40:47;31.40;52.40
52125;DHT22;38119;52.710;6.398;2023-06-10T11:43:14;31.30;51.50
52125;DHT22;38119;52.710;6.398;2023-06-10T11:45:41;31.30;52.60
52125;DHT22;38119;52.710;6.398;2023-06-10T11:48:07;31.30;52.60
52125;DHT22;38119;52.710;6.398;2023-06-10T11:50:33;31.40;52.70
52125;DHT22;38119;52.710;6.398;2023-06-10T11:52:59;31.50;52.30
52125;DHT22;38119;52.710;6.398;2023-06-10T11:55:45;31.60;51.80
52125;DHT22;38119;52.710;6.398;2023-06-10T12:00:48;31.50;50.80
52125;DHT22;38119;52.710;6.398;2023-06-10T12:03:14;31.60;50.60
52125;DHT22;38119;52.710;6.398;2023-06-10T12:05:40;31.60;51.00
52125;DHT22;38119;52.710;6.398;2023-06-10T12:08:12;31.70;50.50
52125;DHT22;38119;52.710;6.398;2023-06-10T12:10:42;31.70;49.70
52125;DHT22;38119;52.710;6.398;2023-06-10T12:13:09;31.70;49.60
52125;DHT22;38119;52.710;6.398;2023-06-10T12:15:35;31.70;49.20
52125;DHT22;38119;52.710;6.398;2023-06-10T12:18:01;31.80;49.00
52125;DHT22;38119;52.710;6.398;2023-06-10T12:20:29;31.80;48.80
52125;DHT22;38119;52.710;6.398;2023-06-10T12:22:55;31.80;48.30
52125;DHT22;38119;52.710;6.398;2023-06-10T12:25:25;31.90;48.20
52125;DHT22;38119;52.710;6.398;2023-06-10T12:27:53;31.90;48.00
52125;DHT22;38119;52.710;6.398;2023-06-10T12:30:20;31.90;47.50
52125;DHT22;38119;52.710;6.398;2023-06-10T12:32:46;31.90;47.10
52125;DHT22;38119;52.710;6.398;2023-06-10T12:35:17;31.90;45.90
52125;DHT22;38119;52.710;6.398;2023-06-10T12:37:43;31.80;44.90
52125;DHT22;38119;52.710;6.398;2023-06-10T12:40:26;31.80;44.90
52125;DHT22;38119;52.710;6.398;2023-06-10T12:42:54;31.70;44.60
52125;DHT22;38119;52.710;6.398;2023-06-10T12:45:34;31.80;44.80
52125;DHT22;38119;52.710;6.398;2023-06-10T12:50:40;31.90;43.40
52125;DHT22;38119;52.710;6.398;2023-06-10T12:53:06;31.90;44.40
52125;DHT22;38119;52.710;6.398;2023-06-10T12:55:33;31.90;43.90
52125;DHT22;38119;52.710;6.398;2023-06-10T12:57:59;31.90;43.50
52125;DHT22;38119;52.710;6.398;2023-06-10T13:00:25;31.90;44.60
52125;DHT22;38119;52.710;6.398;2023-06-10T13:02:52;31.90;44.10
52125;DHT22;38119;52.710;6.398;2023-06-10T13:05:19;31.90;43.20
52125;DHT22;38119;52.710;6.398;2023-06-10T13:07:46;31.90;43.10
52125;DHT22;38119;52.710;6.398;2023-06-10T13:10:15;31.90;43.20
52125;DHT22;38119;52.710;6.398;2023-06-10T13:12:42;32.00;43.30
52125;DHT22;38119;52.710;6.398;2023-06-10T13:15:08;32.00;43.00
52125;DHT22;38119;52.710;6.398;2023-06-10T13:17:34;32.00;42.90
52125;DHT22;38119;52.710;6.398;2023-06-10T13:20:04;32.00;42.40
52125;DHT22;38119;52.710;6.398;2023-06-10T13:22:34;32.10;42.30
52125;DHT22;38119;52.710;6.398;2023-06-10T13:25:05;32.10;41.80
52125;DHT22;38119;52.710;6.398;2023-06-10T13:27:32;32.10;41.60
52125;DHT22;38119;52.710;6.398;2023-06-10T13:29:58;32.00;41.40
52125;DHT22;38119;52.710;6.398;2023-06-10T13:32:23;32.00;42.00
52125;DHT22;38119;52.710;6.398;2023-06-10T13:34:49;32.00;42.50
52125;DHT22;38119;52.710;6.398;2023-06-10T13:37:15;32.00;41.80
52125;DHT22;38119;52.710;6.398;2023-06-10T13:39:43;31.90;41.30
52125;DHT22;38119;52.710;6.398;2023-06-10T13:42:08;31.90;41.50
52125;DHT22;38119;52.710;6.398;2023-06-10T13:44:34;31.90;41.50
52125;DHT22;38119;52.710;6.398;2023-06-10T13:47:02;32.00;41.90
52125;DHT22;38119;52.710;6.398;2023-06-10T13:49:28;32.10;41.20
52125;DHT22;38119;52.710;6.398;2023-06-10T13:51:54;32.10;40.30
52125;DHT22;38119;52.710;6.398;2023-06-10T13:54:19;32.10;40.00
52125;DHT22;38119;52.710;6.398;2023-06-10T13:56:46;32.20;40.20
52125;DHT22;38119;52.710;6.398;2023-06-10T13:59:12;32.10;39.60
52125;DHT22;38119;52.710;6.398;2023-06-10T14:01:38;32.10;39.30
52125;DHT22;38119;52.710;6.398;2023-06-10T14:04:04;32.00;39.40
52125;DHT22;38119;52.710;6.398;2023-06-10T14:06:30;31.90;40.00
52125;DHT22;38119;52.710;6.398;2023-06-10T14:08:56;31.90;40.50
52125;DHT22;38119;52.710;6.398;2023-06-10T14:11:21;32.00;40.70
52125;DHT22;38119;52.710;6.398;2023-06-10T14:13:47;32.00;40.60
52125;DHT22;38119;52.710;6.398;2023-06-10T14:16:13;32.10;40.60
52125;DHT22;38119;52.710;6.398;2023-06-10T14:18:38;32.10;40.60
52125;DHT22;38119;52.710;6.398;2023-06-10T14:21:04;32.00;40.40
52125;DHT22;38119;52.710;6.398;2023-06-10T14:23:30;31.90;38.70
52125;DHT22;38119;52.710;6.398;2023-06-10T14:25:55;31.80;39.30
52125;DHT22;38119;52.710;6.398;2023-06-10T14:28:21;31.70;39.80
52125;DHT22;38119;52.710;6.398;2023-06-10T14:30:46;31.60;40.00
52125;DHT22;38119;52.710;6.398;2023-06-10T14:33:12;31.60;39.50
52125;DHT22;38119;52.710;6.398;2023-06-10T14:35:37;31.50;39.80
52125;DHT22;38119;52.710;6.398;2023-06-10T14:38:03;31.60;40.20
52125;DHT22;38119;52.710;6.398;2023-06-10T14:40:29;31.50;40.20
52125;DHT22;38119;52.710;6.398;2023-06-10T14:42:55;31.60;39.80
52125;DHT22;38119;52.710;6.398;2023-06-10T14:45:21;31.60;39.90
52125;DHT22;38119;52.710;6.398;2023-06-10T14:47:47;31.60;39.50
52125;DHT22;38119;52.710;6.398;2023-06-10T14:50:13;31.60;39.10
52125;DHT22;38119;52.710;6.398;2023-06-10T14:52:39;31.60;39.30
52125;DHT22;38119;52.710;6.398;2023-06-10T14:55:05;31.60;39.30
52125;DHT22;38119;52.710;6.398;2023-06-10T14:57:31;31.60;39.40
52125;DHT22;38119;52.710;6.398;2023-06-10T14:59:57;31.60;39.70
52125;DHT22;38119;52.710;6.398;2023-06-10T15:02:23;31.60;39.40
52125;DHT22;38119;52.710;6.398;2023-06-10T15:04:48;31.60;39.60
52125;DHT22;38119;52.710;6.398;2023-06-10T15:07:14;31.60;39.70
52125;DHT22;38119;52.710;6.398;2023-06-10T15:09:43;31.60;39.80
52125;DHT22;38119;52.710;6.398;2023-06-10T15:12:09;31.60;40.10
52125;DHT22;38119;52.710;6.398;2023-06-10T15:14:36;31.60;40.20
52125;DHT22;38119;52.710;6.398;2023-06-10T15:17:01;31.60;39.80
52125;DHT22;38119;52.710;6.398;2023-06-10T15:19:27;31.50;39.70
52125;DHT22;38119;52.710;6.398;2023-06-10T15:21:53;31.40;39.40
52125;DHT22;38119;52.710;6.398;2023-06-10T15:24:19;31.40;39.70
52125;DHT22;38119;52.710;6.398;2023-06-10T15:26:44;31.40;40.00
52125;DHT22;38119;52.710;6.398;2023-06-10T15:29:10;31.30;40.10
52125;DHT22;38119;52.710;6.398;2023-06-10T15:31:36;31.30;40.00
52125;DHT22;38119;52.710;6.398;2023-06-10T15:34:02;31.30;40.80
52125;DHT22;38119;52.710;6.398;2023-06-10T15:36:29;31.20;40.40